Time;durP1;ratioP1;P1;durP2;ratioP2;P2;SDS_P1;SDS_P2;PMS_P1;PMS_P2;Temp;Humidity;BMP_temperature;BMP_pressure;BME280_temperature;BME280_humidity;BME280_pressure;Samples;Min_cycle;Max_cycle;Signal;HPM_P1;HPM_P2
2021/05/16 00:01:09;;;;;;;8.07;4.10;;;;;;;8.99;83.79;98997.81;5017007;28;20025;-69
2021/05/16 00:03:35;;;;;;;12.60;5.05;;;;;;;9.00;85.04;98996.91;5016009;28;20906;-69
2021/05/16 00:06:01;;;;;;;10.88;4.43;;;;;;;8.95;83.87;98992.81;5017707;28;20032;-68
2021/05/16 00:08:27;;;;;;;9.23;4.00;;;;;;;8.81;83.40;98983.81;5020880;28;20036;-68
2021/05/16 00:10:52;;;;;;;8.68;4.38;;;;;;;8.80;83.64;98989.09;5019230;28;20029;-69
2021/05/16 00:13:18;;;;;;;11.63;4.43;;;;;;;8.77;83.96;98989.25;5021118;28;20017;-69
2021/05/16 00:15:44;;;;;;;8.00;4.18;;;;;;;8.62;84.64;98975.13;5013665;28;20037;-69
2021/05/16 00:18:10;;;;;;;9.95;4.60;;;;;;;8.61;84.63;98977.78;5019028;28;20025;-68
2021/05/16 00:20:35;;;;;;;9.88;3.90;;;;;;;8.55;84.54;98986.69;5022390;28;20884;-68
2021/05/16 00:23:01;;;;;;;8.60;3.83;;;;;;;8.56;83.98;98980.56;5020705;28;20572;-69
2021/05/16 00:25:27;;;;;;;10.45;3.90;;;;;;;8.45;84.19;98978.44;5023052;28;20083;-68
2021/05/16 00:27:53;;;;;;;9.20;3.83;;;;;;;8.35;83.65;98977.06;5021688;28;20075;-68
2021/05/16 00:30:20;;;;;;;8.60;3.28;;;;;;;8.29;83.25;98977.34;5021209;28;20024;-68
2021/05/16 00:32:46;;;;;;;9.45;3.78;;;;;;;8.16;83.54;98976.13;5017642;28;20614;-68
2021/05/16 00:35:15;;;;;;;9.75;3.58;;;;;;;8.02;83.97;98974.09;5020496;28;20112;-68
2021/05/16 00:37:40;;;;;;;7.55;2.83;;;;;;;7.95;84.31;98973.47;5033705;28;20029;-68
2021/05/16 00:40:07;;;;;;;7.30;3.40;;;;;;;7.88;84.02;98972.03;5016846;28;20044;-68
2021/05/16 00:42:33;;;;;;;9.57;3.80;;;;;;;7.83;83.97;98973.97;5020976;28;20105;-68
2021/05/16 00:45:06;;;;;;;60.45;6.50;;;;;;;7.78;84.63;98968.97;5020549;28;20037;-69
2021/05/16 00:47:31;;;;;;;9.35;4.32;;;;;;;7.78;84.25;98971.56;5016380;28;20032;-68
2021/05/16 00:49:57;;;;;;;15.40;4.07;;;;;;;7.78;83.17;98970.72;5021249;28;20033;-69
2021/05/16 00:52:24;;;;;;;9.40;3.75;;;;;;;7.77;84.08;98958.63;5015378;28;20032;-68
2021/05/16 00:54:51;;;;;;;9.38;3.20;;;;;;;7.80;83.83;98963.69;5019003;28;20032;-69
2021/05/16 00:57:17;;;;;;;11.82;3.90;;;;;;;7.94;84.20;98964.00;5016215;28;20060;-68
2021/05/16 00:59:43;;;;;;;19.83;6.00;;;;;;;8.00;83.94;98957.72;5003584;28;20130;-68
2021/05/16 01:02:08;;;;;;;100.25;8.43;;;;;;;8.10;84.13;98958.19;5021897;28;20013;-68
2021/05/16 01:04:33;;;;;;;21.73;6.93;;;;;;;8.12;83.93;98954.63;5024021;28;20040;-70
2021/05/16 01:06:59;;;;;;;24.17;6.13;;;;;;;8.18;84.39;98961.34;5034744;28;20021;-68
2021/05/16 01:09:25;;;;;;;17.50;5.93;;;;;;;8.19;84.21;98950.03;5039146;28;20044;-68
2021/05/16 01:11:51;;;;;;;336.80;39.35;;;;;;;8.19;84.63;98948.25;5046833;28;20127;-68
2021/05/16 01:14:22;;;;;;;71.22;13.48;;;;;;;8.28;84.80;98952.25;5026661;28;20029;-68
2021/05/16 01:16:47;;;;;;;11.73;4.72;;;;;;;8.31;85.06;98949.50;5009393;28;20119;-69
2021/05/16 01:19:13;;;;;;;11.27;4.93;;;;;;;8.39;85.38;98947.47;5025855;28;20416;-69
2021/05/16 01:21:40;;;;;;;9.95;4.53;;;;;;;8.62;84.09;98949.13;5024297;28;20048;-68
2021/05/16 01:24:17;;;;;;;10.93;4.70;;;;;;;8.60;84.66;98956.13;5030707;28;20017;-68
2021/05/16 01:26:46;;;;;;;10.85;4.82;;;;;;;8.55;84.96;98958.91;5023822;28;20150;-69
2021/05/16 01:29:12;;;;;;;10.80;5.00;;;;;;;8.57;85.74;98957.13;5040743;28;20016;-69
2021/05/16 01:31:38;;;;;;;10.32;4.35;;;;;;;8.73;86.29;98954.69;5038162;28;20031;-68
2021/05/16 01:34:04;;;;;;;9.02;4.22;;;;;;;8.54;85.16;98957.22;5037772;28;21086;-68
2021/05/16 01:36:30;;;;;;;9.68;4.20;;;;;;;8.51;84.45;98959.94;5038470;28;20120;-69
2021/05/16 01:38:55;;;;;;;8.90;3.95;;;;;;;8.51;84.56;98951.31;5042346;28;20060;-68
2021/05/16 01:41:21;;;;;;;9.95;4.07;;;;;;;8.79;83.54;98944.03;5003052;28;20020;-68
2021/05/16 01:43:48;;;;;;;9.50;4.50;;;;;;;8.61;83.72;98951.75;5022027;28;20047;-68
2021/05/16 01:46:15;;;;;;;8.67;4.00;;;;;;;8.63;84.27;98950.81;5047784;28;20414;-68
2021/05/16 01:48:41;;;;;;;10.30;4.20;;;;;;;8.49;84.28;98959.19;5014011;28;20021;-68
2021/05/16 01:51:07;;;;;;;9.23;3.72;;;;;;;8.35;85.00;98961.47;5024891;28;20078;-69
2021/05/16 01:53:32;;;;;;;7.97;3.85;;;;;;;8.19;85.10;98942.22;5018021;28;20498;-68
2021/05/16 01:55:58;;;;;;;8.43;3.65;;;;;;;8.23;85.41;98946.41;5041808;28;20025;-68
2021/05/16 01:58:25;;;;;;;11.40;4.40;;;;;;;8.14;85.46;98942.41;5019700;28;20036;-68
2021/05/16 02:00:51;;;;;;;8.63;4.30;;;;;;;8.13;85.81;98945.06;5028232;28;20051;-68
2021/05/16 02:03:17;;;;;;;12.13;5.15;;;;;;;8.19;85.90;98953.47;5017556;28;20091;-68
2021/05/16 02:05:43;;;;;;;9.70;4.18;;;;;;;8.09;86.21;98948.69;4992553;28;20044;-68
2021/05/16 02:08:09;;;;;;;13.98;4.97;;;;;;;7.94;86.09;98940.63;5014559;28;20025;-68
2021/05/16 02:10:34;;;;;;;8.43;4.55;;;;;;;7.86;85.85;98942.69;5019958;28;20034;-68
2021/05/16 02:13:01;;;;;;;7.63;3.80;;;;;;;7.77;85.38;98937.84;5019607;28;20029;-69
2021/05/16 02:15:27;;;;;;;8.05;3.55;;;;;;;7.69;86.47;98945.09;5021138;28;20029;-68
2021/05/16 02:17:55;;;;;;;9.82;3.90;;;;;;;7.72;84.95;98942.38;5027386;28;20638;-68
2021/05/16 02:20:21;;;;;;;9.45;4.50;;;;;;;7.72;85.45;98944.97;5019175;28;20025;-68
2021/05/16 02:22:47;;;;;;;8.05;4.05;;;;;;;7.70;85.06;98932.03;5027043;28;20079;-68
2021/05/16 02:25:13;;;;;;;8.95;3.67;;;;;;;7.63;84.83;98934.94;5016844;28;20040;-68
2021/05/16 02:27:39;;;;;;;11.85;4.70;;;;;;;7.52;85.56;98927.56;5027143;28;20479;-68
2021/05/16 02:30:08;;;;;;;8.77;4.70;;;;;;;7.37;86.33;98928.16;5011271;28;20041;-68
2021/05/16 02:32:34;;;;;;;9.63;5.00;;;;;;;7.26;87.24;98936.34;5019757;28;20036;-68
2021/05/16 02:34:59;;;;;;;8.85;4.60;;;;;;;7.22;86.83;98934.78;5026652;28;20025;-68
2021/05/16 02:37:25;;;;;;;9.07;3.70;;;;;;;7.07;86.00;98927.56;5015034;28;20049;-68
2021/05/16 02:39:50;;;;;;;8.05;3.35;;;;;;;7.14;85.81;98936.78;5033254;28;20036;-68
2021/05/16 02:42:16;;;;;;;8.00;4.03;;;;;;;7.01;85.78;98934.66;5012988;28;20128;-68
2021/05/16 02:44:41;;;;;;;10.48;5.03;;;;;;;6.97;85.73;98940.84;5019451;28;20760;-68
2021/05/16 02:47:07;;;;;;;12.38;4.30;;;;;;;6.91;85.67;98941.09;5019264;28;20033;-68
2021/05/16 02:49:33;;;;;;;9.57;4.35;;;;;;;6.80;85.98;98932.00;5019480;28;20021;-68
2021/05/16 02:51:58;;;;;;;8.15;4.40;;;;;;;6.75;85.95;98934.75;5023867;28;20021;-68
2021/05/16 02:54:25;;;;;;;8.88;4.60;;;;;;;6.65;85.76;98930.78;5018684;28;20120;-68
2021/05/16 02:56:51;;;;;;;13.85;5.55;;;;;;;6.63;85.18;98919.59;5025117;28;20037;-68
2021/05/16 02:59:17;;;;;;;14.23;5.57;;;;;;;6.60;85.66;98935.28;5018076;28;20404;-69
2021/05/16 03:01:43;;;;;;;18.63;5.10;;;;;;;6.53;85.49;98938.97;5017836;28;20028;-68
2021/05/16 03:04:08;;;;;;;26.27;7.07;;;;;;;6.47;86.18;98930.50;5034070;28;20071;-68
2021/05/16 03:06:34;;;;;;;25.77;6.88;;;;;;;6.45;87.20;98940.09;5001179;28;20028;-68
2021/05/16 03:08:59;;;;;;;85.82;10.25;;;;;;;6.43;88.51;98934.09;5037122;28;20029;-68
2021/05/16 03:11:25;;;;;;;35.00;9.23;;;;;;;6.31;90.09;98916.38;5016546;28;20026;-68
2021/05/16 03:13:50;;;;;;;50.50;7.85;;;;;;;6.39;89.65;98929.94;5022345;28;20040;-69
2021/05/16 03:16:16;;;;;;;8.38;3.70;;;;;;;6.38;90.08;98930.81;5024132;28;20033;-68
2021/05/16 03:18:41;;;;;;;9.85;3.25;;;;;;;6.30;88.67;98932.84;5021915;28;20029;-68
2021/05/16 03:21:07;;;;;;;9.93;4.43;;;;;;;6.26;87.59;98936.44;5017606;28;20566;-68
2021/05/16 03:23:32;;;;;;;9.23;4.28;;;;;;;6.16;87.15;98938.47;5034660;28;20032;-68
2021/05/16 03:26:01;;;;;;;8.65;4.03;;;;;;;6.18;87.20;98938.41;5021869;28;20032;-68
2021/05/16 03:28:28;;;;;;;8.82;4.00;;;;;;;6.37;85.92;98939.50;5007215;28;20051;-68
2021/05/16 03:30:54;;;;;;;8.77;4.50;;;;;;;6.21;85.91;98939.16;5021273;28;20107;-68
2021/05/16 03:33:19;;;;;;;9.43;4.05;;;;;;;6.14;86.52;98931.66;5020109;28;20035;-68
2021/05/16 03:35:45;;;;;;;10.45;4.40;;;;;;;6.08;85.97;98924.91;5023661;28;20032;-68
2021/05/16 03:38:10;;;;;;;9.13;4.03;;;;;;;6.14;86.63;98921.31;5003563;28;20036;-68
2021/05/16 03:40:36;;;;;;;8.65;3.97;;;;;;;6.07;86.86;98922.38;5019256;28;20060;-68
2021/05/16 03:43:02;;;;;;;7.75;3.63;;;;;;;5.89;87.42;98908.28;5009946;28;20055;-69
2021/05/16 03:45:27;;;;;;;7.70;3.42;;;;;;;5.89;86.98;98916.88;5007632;28;20029;-68
2021/05/16 03:47:53;;;;;;;7.85;3.80;;;;;;;5.91;88.67;98925.47;5044923;28;20025;-68
2021/05/16 03:50:18;;;;;;;6.90;3.50;;;;;;;5.86;87.67;98919.56;5042964;28;20047;-68
2021/05/16 03:52:44;;;;;;;5.97;2.95;;;;;;;5.81;86.07;98916.28;5047146;28;20029;-68
2021/05/16 03:55:11;;;;;;;5.90;2.90;;;;;;;5.78;85.51;98913.78;5028336;28;20518;-70
2021/05/16 03:57:37;;;;;;;7.78;3.30;;;;;;;5.76;85.82;98920.75;5044481;28;20565;-68
2021/05/16 04:00:04;;;;;;;8.60;3.47;;;;;;;5.75;86.60;98920.81;5025211;28;20029;-68
2021/05/16 04:02:29;;;;;;;19.97;5.97;;;;;;;5.70;86.97;98921.78;5025542;28;20025;-68
2021/05/16 04:04:55;;;;;;;69.80;8.82;;;;;;;5.68;87.49;98923.59;5044229;28;20025;-68
2021/05/16 04:07:20;;;;;;;101.55;8.25;;;;;;;5.69;89.15;98920.09;5022165;28;20495;-68
2021/05/16 04:09:47;;;;;;;94.25;10.35;;;;;;;5.75;90.64;98921.66;5045602;28;20029;-68
2021/05/16 04:12:12;;;;;;;55.05;7.55;;;;;;;5.71;90.40;98907.94;5022256;28;20028;-68
2021/05/16 04:14:38;;;;;;;25.48;6.18;;;;;;;5.72;90.55;98919.16;5024492;28;20017;-68
2021/05/16 04:17:03;;;;;;;16.05;5.30;;;;;;;5.72;90.00;98924.31;5046517;28;20485;-68
2021/05/16 04:19:29;;;;;;;12.65;4.47;;;;;;;5.77;89.33;98922.44;5045558;28;20025;-68
2021/05/16 04:21:54;;;;;;;24.48;5.97;;;;;;;5.80;88.40;98929.28;5005329;28;20025;-68
2021/05/16 04:24:20;;;;;;;10.02;5.10;;;;;;;5.77;88.10;98927.63;5023580;28;20114;-68
2021/05/16 04:26:45;;;;;;;22.23;4.97;;;;;;;5.78;87.74;98931.94;5039742;28;20035;-68
2021/05/16 04:29:11;;;;;;;9.90;5.75;;;;;;;5.86;88.12;98931.66;5022438;28;20040;-68
2021/05/16 04:31:37;;;;;;;8.25;4.18;;;;;;;5.91;88.22;98930.66;5026820;28;20054;-68
2021/05/16 04:34:02;;;;;;;11.32;5.13;;;;;;;6.00;88.02;98933.84;5023435;28;20013;-68
2021/05/16 04:36:28;;;;;;;9.20;4.68;;;;;;;6.20;87.14;98929.72;5039552;28;20040;-68
2021/05/16 04:38:53;;;;;;;9.90;4.82;;;;;;;6.24;86.54;98925.28;5025135;28;20097;-68
2021/05/16 04:41:20;;;;;;;7.22;4.07;;;;;;;6.20;86.30;98931.47;5025795;28;20025;-68
2021/05/16 04:43:45;;;;;;;10.32;4.70;;;;;;;6.18;86.91;98935.81;5006189;28;20063;-69
2021/05/16 04:46:11;;;;;;;11.55;4.40;;;;;;;6.26;87.04;98936.44;5041710;28;20021;-68
2021/05/16 04:48:37;;;;;;;8.05;3.90;;;;;;;6.20;86.66;98931.47;5024092;28;20531;-67
2021/05/16 04:51:02;;;;;;;8.23;3.53;;;;;;;6.18;85.60;98930.63;5025492;28;20025;-68
2021/05/16 04:53:30;;;;;;;9.80;4.22;;;;;;;6.20;85.95;98931.47;5046231;28;20037;-68
2021/05/16 04:55:56;;;;;;;10.95;4.78;;;;;;;6.15;86.72;98930.75;5022901;28;20017;-68
2021/05/16 04:58:23;;;;;;;11.13;4.72;;;;;;;6.11;87.28;98936.94;5025764;28;20090;-68
2021/05/16 05:00:49;;;;;;;8.80;3.77;;;;;;;6.12;87.16;98928.25;5025029;28;20040;-67
2021/05/16 05:03:16;;;;;;;8.32;3.78;;;;;;;6.10;89.01;98924.88;5005137;28;20690;-68
2021/05/16 05:05:41;;;;;;;12.60;5.45;;;;;;;6.15;89.94;98923.00;5019614;28;20448;-67
2021/05/16 05:08:07;;;;;;;11.38;5.03;;;;;;;6.18;90.05;98923.75;5020336;28;20021;-68
2021/05/16 05:10:32;;;;;;;10.00;4.38;;;;;;;6.30;88.84;98929.41;5025073;28;20036;-67
2021/05/16 05:12:58;;;;;;;11.20;3.95;;;;;;;6.30;89.13;98932.84;5020695;28;20063;-68
2021/05/16 05:15:23;;;;;;;12.20;5.40;;;;;;;6.34;90.52;98937.03;5020945;28;20025;-67
2021/05/16 05:17:49;;;;;;;11.70;4.47;;;;;;;6.41;90.24;98940.25;5019045;28;20028;-68
2021/05/16 05:20:14;;;;;;;12.55;5.22;;;;;;;6.48;90.40;98929.59;5023633;28;20032;-69
2021/05/16 05:22:40;;;;;;;10.40;4.95;;;;;;;6.63;89.69;98940.34;5007769;28;20029;-68
2021/05/16 05:25:06;;;;;;;11.52;4.82;;;;;;;6.68;89.15;98935.84;5022310;28;20052;-68
2021/05/16 05:27:31;;;;;;;13.25;5.00;;;;;;;6.76;88.72;98941.63;5014679;28;20183;-68
2021/05/16 05:29:57;;;;;;;10.10;4.55;;;;;;;6.84;89.23;98943.94;5019049;28;20547;-68
2021/05/16 05:32:22;;;;;;;13.63;5.30;;;;;;;6.89;89.40;98937.69;5015217;28;20029;-68
2021/05/16 05:34:48;;;;;;;9.40;4.15;;;;;;;7.15;89.61;98939.34;5021316;28;20068;-68
2021/05/16 05:37:13;;;;;;;12.65;5.30;;;;;;;7.16;89.88;98946.22;5018700;28;20017;-68
2021/05/16 05:39:39;;;;;;;12.20;5.22;;;;;;;7.29;89.56;98944.00;5022885;28;20034;-68
2021/05/16 05:42:05;;;;;;;11.40;4.75;;;;;;;7.29;89.25;98946.59;5021787;28;20030;-68
2021/05/16 05:44:31;;;;;;;12.48;4.18;;;;;;;7.26;88.92;98946.75;5016001;28;20029;-68
2021/05/16 05:46:57;;;;;;;13.10;4.32;;;;;;;7.37;88.41;98941.97;5019045;28;20033;-68
2021/05/16 05:49:23;;;;;;;10.93;4.47;;;;;;;7.44;88.34;98945.19;5013390;28;20053;-70
2021/05/16 05:51:49;;;;;;;10.48;4.38;;;;;;;7.47;88.65;98945.91;5024767;28;20078;-68
2021/05/16 05:54:15;;;;;;;11.40;4.70;;;;;;;7.54;88.61;98944.78;5013887;28;20073;-68
2021/05/16 05:56:40;;;;;;;11.43;4.75;;;;;;;7.69;88.94;98952.88;5020881;28;20021;-67
2021/05/16 05:59:06;;;;;;;10.27;4.53;;;;;;;7.75;89.06;98950.88;5021340;28;20195;-68
2021/05/16 06:01:31;;;;;;;10.35;4.95;;;;;;;7.85;89.76;98951.38;5020162;28;20480;-69
2021/05/16 06:03:57;;;;;;;13.98;4.80;;;;;;;7.98;89.16;98952.59;5018717;28;20045;-68
2021/05/16 06:06:22;;;;;;;11.27;4.60;;;;;;;8.14;89.79;98941.56;5017494;28;20044;-68
2021/05/16 06:08:48;;;;;;;14.77;5.20;;;;;;;8.17;89.86;98941.44;5018467;28;20024;-68
2021/05/16 06:11:13;;;;;;;11.07;4.43;;;;;;;8.35;89.62;98950.22;5018339;28;20428;-68
2021/05/16 06:13:39;;;;;;;12.68;4.55;;;;;;;8.42;89.12;98949.97;5014298;28;20022;-68
2021/05/16 06:16:04;;;;;;;9.30;3.95;;;;;;;8.48;90.08;98939.28;5014682;28;20040;-68
2021/05/16 06:18:31;;;;;;;13.85;4.88;;;;;;;8.68;89.47;98954.06;5022626;28;20032;-69
2021/05/16 06:20:57;;;;;;;12.18;4.50;;;;;;;8.76;89.51;98951.94;4998313;28;20036;-68
2021/05/16 06:23:32;;;;;;;13.85;4.80;;;;;;;8.91;89.61;98952.19;5014649;28;20021;-68
2021/05/16 06:25:57;;;;;;;11.77;4.50;;;;;;;9.04;89.15;98955.97;5016994;28;20045;-68
2021/05/16 06:28:23;;;;;;;12.07;4.45;;;;;;;9.19;88.56;98954.44;5016225;28;20029;-68
2021/05/16 06:30:48;;;;;;;9.95;4.40;;;;;;;9.32;89.29;98953.78;5020441;28;20025;-68
2021/05/16 06:33:14;;;;;;;14.68;4.75;;;;;;;9.48;88.72;98950.47;5024546;28;20033;-68
2021/05/16 06:35:39;;;;;;;11.38;4.72;;;;;;;9.64;88.64;98961.06;5020334;28;20269;-68
2021/05/16 06:38:05;;;;;;;13.95;4.40;;;;;;;9.73;87.99;98947.56;5019663;28;20099;-68
2021/05/16 06:40:32;;;;;;;15.73;4.78;;;;;;;9.94;87.69;98964.81;5002132;28;20107;-69
2021/05/16 06:42:59;;;;;;;13.73;5.00;;;;;;;10.22;87.06;98947.81;5001113;28;20623;-68
2021/05/16 06:45:25;;;;;;;14.10;5.30;;;;;;;10.37;86.44;98957.53;5021133;28;20021;-68
2021/05/16 06:47:50;;;;;;;17.95;5.15;;;;;;;10.56;85.42;98958.31;5003687;28;20278;-68
2021/05/16 06:50:16;;;;;;;14.77;4.78;;;;;;;10.58;85.59;98946.00;5000551;28;20040;-69
2021/05/16 06:52:42;;;;;;;16.30;5.38;;;;;;;10.49;86.34;98956.94;5003233;28;20041;-68
2021/05/16 06:55:08;;;;;;;17.90;5.45;;;;;;;10.70;85.08;98948.94;5018127;28;20401;-69
2021/05/16 06:57:34;;;;;;;13.02;5.60;;;;;;;10.67;85.26;98955.16;5020750;28;20025;-69
2021/05/16 06:59:59;;;;;;;18.52;5.78;;;;;;;10.64;86.28;98958.78;5019533;28;20441;-68
2021/05/16 07:02:26;;;;;;;15.75;6.28;;;;;;;10.76;85.68;98952.06;5019304;28;20527;-68
2021/05/16 07:04:51;;;;;;;14.95;5.50;;;;;;;10.96;85.24;98961.50;5022162;28;20040;-68
2021/05/16 07:07:17;;;;;;;15.25;4.95;;;;;;;11.34;83.13;98948.16;5020370;28;20040;-68
2021/05/16 07:09:42;;;;;;;15.82;5.30;;;;;;;11.54;82.72;98958.38;5018996;28;20402;-69
2021/05/16 07:12:10;;;;;;;13.95;5.28;;;;;;;11.43;82.17;98968.56;5038593;28;20036;-69
2021/05/16 07:14:36;;;;;;;18.45;5.80;;;;;;;11.50;81.54;98967.31;5019799;28;20066;-68
2021/05/16 07:17:01;;;;;;;10.35;4.13;;;;;;;11.69;80.18;98965.38;5024321;28;20029;-68
2021/05/16 07:19:27;;;;;;;14.25;4.10;;;;;;;11.98;78.62;98968.19;5041353;28;20104;-68
2021/05/16 07:21:53;;;;;;;9.07;3.40;;;;;;;12.05;77.84;98969.53;5018028;28;20244;-68
2021/05/16 07:24:18;;;;;;;8.38;3.33;;;;;;;12.19;76.75;98961.75;5038119;28;20025;-69
2021/05/16 07:26:44;;;;;;;9.20;3.22;;;;;;;12.15;76.42;98962.84;5020150;28;20025;-68
2021/05/16 07:29:10;;;;;;;9.00;3.47;;;;;;;12.29;76.33;98967.28;5019919;28;20075;-69
2021/05/16 07:31:37;;;;;;;12.35;4.28;;;;;;;12.25;76.42;98975.41;5020442;28;20029;-68
2021/05/16 07:34:02;;;;;;;8.95;3.20;;;;;;;12.22;76.76;98970.38;5038770;28;20111;-68
2021/05/16 07:36:28;;;;;;;10.10;2.95;;;;;;;12.40;75.23;98958.81;5038775;28;20124;-69
2021/05/16 07:38:53;;;;;;;12.93;3.67;;;;;;;12.54;75.23;98971.97;5037250;28;20494;-68
2021/05/16 07:41:19;;;;;;;10.60;2.67;;;;;;;12.27;75.83;98973.56;5020582;28;20021;-69
2021/05/16 07:43:45;;;;;;;12.80;3.20;;;;;;;12.57;76.90;98977.03;5021519;28;20021;-68
2021/05/16 07:46:10;;;;;;;9.48;3.30;;;;;;;12.88;75.65;98980.47;5018256;28;20452;-69
2021/05/16 07:48:36;;;;;;;9.98;3.88;;;;;;;13.30;73.69;98981.44;5018717;28;20108;-68
2021/05/16 07:51:02;;;;;;;9.70;4.13;;;;;;;13.80;72.18;98974.84;5034073;28;20028;-68
2021/05/16 07:53:28;;;;;;;13.05;4.30;;;;;;;13.72;71.08;98980.53;5023196;28;20590;-68
2021/05/16 07:55:54;;;;;;;11.57;4.68;;;;;;;13.48;71.54;98975.03;5019877;28;20025;-68
2021/05/16 07:58:20;;;;;;;12.43;4.18;;;;;;;13.44;71.83;98979.66;5019784;28;20021;-69
2021/05/16 08:00:45;;;;;;;10.90;4.20;;;;;;;13.54;72.43;98979.94;5016930;28;20587;-69
2021/05/16 08:03:11;;;;;;;15.10;4.47;;;;;;;13.89;71.39;98988.22;5017225;28;20134;-69
2021/05/16 08:05:36;;;;;;;13.50;4.97;;;;;;;14.04;71.72;98975.88;5011388;28;20072;-68
2021/05/16 08:08:02;;;;;;;10.07;3.60;;;;;;;14.34;68.63;98969.56;5018646;28;20041;-68
2021/05/16 08:10:28;;;;;;;11.75;3.97;;;;;;;14.31;69.39;98964.53;5001481;28;20026;-69
2021/05/16 08:12:54;;;;;;;9.30;3.17;;;;;;;14.16;69.19;98975.09;5013318;28;20026;-68
2021/05/16 08:15:20;;;;;;;8.32;3.67;;;;;;;13.96;69.94;98980.78;5020823;28;20731;-69
2021/05/16 08:17:47;;;;;;;8.90;2.95;;;;;;;13.91;69.70;98982.84;5022620;28;20026;-68
2021/05/16 08:20:13;;;;;;;10.18;3.58;;;;;;;13.65;69.44;98985.34;5008006;28;20885;-69
2021/05/16 08:22:39;;;;;;;10.95;3.80;;;;;;;13.42;70.56;98992.00;5008273;28;20454;-68
2021/05/16 08:25:09;;;;;;;10.55;3.95;;;;;;;13.23;71.84;98989.69;5013417;28;20132;-68
2021/05/16 08:27:35;;;;;;;11.05;3.65;;;;;;;13.72;70.42;98983.16;5019080;28;20780;-68
2021/05/16 08:30:01;;;;;;;9.43;3.53;;;;;;;14.42;69.44;98972.53;5011019;28;20026;-68
2021/05/16 08:32:26;;;;;;;9.38;3.40;;;;;;;14.51;67.61;98982.47;5018931;28;20034;-68
2021/05/16 08:34:52;;;;;;;12.32;4.22;;;;;;;14.96;66.62;98973.28;5022934;28;20067;-68
2021/05/16 08:37:18;;;;;;;11.20;3.28;;;;;;;14.78;65.07;98980.63;5021442;28;20049;-69
2021/05/16 08:39:44;;;;;;;10.00;3.25;;;;;;;14.87;64.33;98983.56;5000991;28;20021;-69
2021/05/16 08:42:10;;;;;;;8.77;3.10;;;;;;;15.01;64.73;98980.84;5011169;28;20108;-68
2021/05/16 08:44:36;;;;;;;9.05;2.95;;;;;;;15.48;62.03;98984.59;5003140;28;20029;-68
2021/05/16 08:47:02;;;;;;;5.80;2.40;;;;;;;15.62;62.28;98981.00;5017217;28;20026;-68
2021/05/16 08:49:28;;;;;;;7.93;2.90;;;;;;;15.94;62.28;98978.72;5020399;28;20128;-69
2021/05/16 08:51:54;;;;;;;5.07;2.38;;;;;;;15.83;61.63;98985.59;5021298;28;20273;-68
2021/05/16 08:54:21;;;;;;;7.38;2.20;;;;;;;15.29;62.38;98988.50;5020521;28;20029;-68
2021/05/16 08:56:51;;;;;;;4.90;2.10;;;;;;;14.93;63.45;98983.16;5026987;28;20119;-69
2021/05/16 08:59:20;;;;;;;6.40;1.92;;;;;;;14.69;62.76;98996.16;5003427;28;20029;-68
2021/05/16 09:01:56;;;;;;;5.55;1.77;;;;;;;14.90;63.42;98985.97;5015299;28;20026;-68
2021/05/16 09:04:34;;;;;;;6.18;2.35;;;;;;;15.00;62.27;98976.53;5036112;28;20090;-68
2021/05/16 09:07:00;;;;;;;7.70;2.55;;;;;;;15.23;63.70;98985.47;5023605;28;20025;-68
2021/05/16 09:09:36;;;;;;;7.45;2.38;;;;;;;15.15;62.84;98982.53;5020088;28;20043;-69
2021/05/16 09:12:01;;;;;;;6.53;2.30;;;;;;;15.25;64.02;98987.03;5037442;28;20083;-68
2021/05/16 09:14:43;;;;;;;6.68;2.20;;;;;;;15.21;62.83;98977.69;5021483;28;20488;-69
2021/05/16 09:17:28;;;;;;;6.53;3.33;;;;;;;15.13;62.83;98980.00;5022462;28;20426;-68
2021/05/16 09:19:57;;;;;;;7.78;2.10;;;;;;;15.16;61.75;98990.31;5040212;28;20476;-68
2021/05/16 09:22:43;;;;;;;4.57;1.83;;;;;;;14.66;62.21;98984.06;5021794;28;20025;-68
2021/05/16 09:25:13;;;;;;;4.50;1.75;;;;;;;15.25;61.70;98989.66;5019364;28;20082;-69
2021/05/16 09:27:39;;;;;;;6.50;2.10;;;;;;;15.67;60.53;98995.56;5035254;28;20024;-69
2021/05/16 09:30:18;;;;;;;7.93;1.98;;;;;;;16.43;58.46;98990.94;5018740;28;20584;-69
2021/05/16 09:32:59;;;;;;;7.65;1.90;;;;;;;16.75;56.91;98992.03;5035808;28;20036;-69
2021/05/16 09:35:35;;;;;;;10.30;2.10;;;;;;;16.14;58.17;98993.91;5022221;28;20384;-69
2021/05/16 09:38:11;;;;;;;7.93;1.77;;;;;;;16.10;58.22;98997.72;5036724;28;20841;-69
2021/05/16 09:40:44;;;;;;;5.90;1.67;;;;;;;16.12;58.56;99001.09;5038196;28;20029;-68
2021/05/16 09:43:18;;;;;;;6.50;1.67;;;;;;;15.80;59.58;99000.75;5020764;28;20481;-68
2021/05/16 09:45:53;;;;;;;4.35;1.52;;;;;;;15.40;59.68;98989.56;5037340;28;20041;-67
2021/05/16 09:48:28;;;;;;;6.15;1.60;;;;;;;15.20;61.22;98997.03;5035393;28;20065;-69
2021/05/16 09:51:15;;;;;;;8.73;2.10;;;;;;;15.29;60.40;98991.13;5040315;28;20158;-69
2021/05/16 09:54:02;;;;;;;5.63;1.95;;;;;;;15.70;59.64;98997.94;5022882;28;20075;-69
2021/05/16 09:56:31;;;;;;;4.75;1.67;;;;;;;15.42;59.39;98995.56;5039395;28;20059;-69
2021/05/16 09:59:01;;;;;;;7.30;2.15;;;;;;;15.80;60.32;98996.34;5006943;28;20037;-69
2021/05/16 10:01:28;;;;;;;6.32;2.20;;;;;;;17.31;55.61;99000.06;5022603;28;20135;-69
2021/05/16 10:03:57;;;;;;;7.50;2.63;;;;;;;19.57;48.13;98999.13;5036153;28;20469;-69
2021/05/16 10:06:23;;;;;;;8.65;2.25;;;;;;;20.40;47.49;98991.78;5038038;28;20029;-69
2021/05/16 10:08:49;;;;;;;8.63;1.85;;;;;;;18.22;51.74;98996.38;5015597;28;20455;-69
2021/05/16 10:11:17;;;;;;;9.98;1.80;;;;;;;18.19;50.89;99004.53;5022019;28;20033;-69
2021/05/16 10:13:48;;;;;;;9.60;1.77;;;;;;;18.67;49.43;98993.56;5023800;28;20039;-69
2021/05/16 10:16:17;;;;;;;7.85;2.05;;;;;;;17.81;51.95;99011.09;5016860;28;20746;-69
2021/05/16 10:18:43;;;;;;;7.40;2.15;;;;;;;17.00;55.02;99006.84;5023026;28;20136;-69
2021/05/16 10:21:08;;;;;;;9.30;2.92;;;;;;;19.68;48.01;99007.00;5038904;28;20111;-69
2021/05/16 10:23:36;;;;;;;6.93;1.92;;;;;;;20.92;45.51;99008.25;5018019;28;20028;-69
2021/05/16 10:26:31;;;;;;;7.07;2.10;;;;;;;22.14;42.07;99001.13;5039195;28;20021;-69
2021/05/16 10:29:04;;;;;;;8.10;2.10;;;;;;;21.80;41.17;99008.88;5012424;28;20048;-69
2021/05/16 10:31:52;;;;;;;8.68;2.40;;;;;;;22.06;41.92;99014.31;5021977;28;20029;-69
2021/05/16 10:34:32;;;;;;;10.32;2.30;;;;;;;23.70;37.69;98999.53;5029729;28;20032;-69
2021/05/16 10:36:58;;;;;;;10.55;2.35;;;;;;;25.14;34.81;99007.28;5031434;28;20029;-70
2021/05/16 10:39:39;;;;;;;5.88;2.17;;;;;;;25.20;32.42;98998.59;5019334;28;20035;-70
2021/05/16 10:42:19;;;;;;;9.13;2.22;;;;;;;25.88;32.00;99003.41;5036759;28;20412;-69
2021/05/16 10:44:55;;;;;;;9.13;1.90;;;;;;;24.39;34.05;99004.75;5039124;28;20063;-69
2021/05/16 10:47:43;;;;;;;11.40;2.30;;;;;;;22.69;38.35;99006.31;5018827;28;20092;-69
2021/05/16 10:50:30;;;;;;;9.05;1.83;;;;;;;23.30;38.19;98997.44;5037695;28;20028;-69
2021/05/16 10:53:17;;;;;;;9.10;2.20;;;;;;;23.00;38.44;99007.56;5034676;28;20134;-69
2021/05/16 10:55:49;;;;;;;10.52;2.50;;;;;;;23.61;37.32;99007.59;5040052;28;20787;-69
2021/05/16 10:58:35;;;;;;;7.43;1.52;;;;;;;23.41;38.05;99002.50;5036917;28;20028;-69
2021/05/16 11:01:03;;;;;;;9.57;2.10;;;;;;;25.41;34.46;99014.09;5037264;28;20028;-69
2021/05/16 11:03:49;;;;;;;9.38;2.40;;;;;;;22.89;37.84;99013.16;5010710;28;20076;-69
2021/05/16 11:06:17;;;;;;;10.55;2.40;;;;;;;22.50;39.03;99016.09;5017234;28;20033;-69
2021/05/16 11:08:42;;;;;;;8.57;2.13;;;;;;;23.84;37.03;99016.75;5017313;28;20100;-69
2021/05/16 11:11:28;;;;;;;7.75;1.95;;;;;;;24.88;34.18;99013.59;5015347;28;20094;-69
2021/05/16 11:13:54;;;;;;;8.93;2.20;;;;;;;20.79;42.80;99019.19;5000164;28;20104;-69
2021/05/16 11:16:19;;;;;;;10.25;2.40;;;;;;;19.34;45.45;99027.56;5019398;28;20033;-69
2021/05/16 11:18:45;;;;;;;9.32;2.80;;;;;;;22.90;38.98;99025.47;5016489;28;20465;-69
2021/05/16 11:21:11;;;;;;;11.73;2.50;;;;;;;22.67;38.87;99025.09;5016359;28;20031;-69
2021/05/16 11:23:39;;;;;;;11.20;2.80;;;;;;;22.98;39.39;99027.38;5017971;28;20029;-69
2021/05/16 11:26:04;;;;;;;12.07;2.65;;;;;;;24.85;35.78;99027.31;5016929;28;20032;-69
2021/05/16 11:28:32;;;;;;;9.57;3.03;;;;;;;25.75;33.37;99029.84;5020045;28;20442;-68
2021/05/16 11:30:58;;;;;;;11.07;2.75;;;;;;;26.10;32.59;99026.72;5012863;28;20049;-68
2021/05/16 11:33:35;;;;;;;9.68;2.53;;;;;;;25.92;32.30;99034.16;5015890;28;20508;-68
2021/05/16 11:36:11;;;;;;;12.80;3.17;;;;;;;25.70;33.24;99034.84;5006478;28;20474;-68